sensor_id;sensor_type;location;lat;lon;timestamp;P1;durP1;ratioP1;P2;durP2;ratioP2
59516;SDS011;45342;42.662;27.718;2024-01-11T00:01:36;5.72;;;3.55;;
59516;SDS011;45342;42.662;27.718;2024-01-11T00:04:01;6.18;;;3.90;;
59516;SDS011;45342;42.662;27.718;2024-01-11T00:06:27;5.35;;;3.50;;
59516;SDS011;45342;42.662;27.718;2024-01-11T00:08:54;6.07;;;3.92;;
59516;SDS011;45342;42.662;27.718;2024-01-11T00:11:20;6.15;;;3.47;;
59516;SDS011;45342;42.662;27.718;2024-01-11T00:13:47;6.28;;;3.90;;
59516;SDS011;45342;42.662;27.718;2024-01-11T00:16:15;5.50;;;3.67;;
59516;SDS011;45342;42.662;27.718;2024-01-11T00:18:40;5.70;;;3.60;;
59516;SDS011;45342;42.662;27.718;2024-01-11T00:21:06;5.40;;;3.50;;
59516;SDS011;45342;42.662;27.718;2024-01-11T00:23:33;5.07;;;3.15;;
59516;SDS011;45342;42.662;27.718;2024-01-11T00:25:58;5.90;;;3.70;;
59516;SDS011;45342;42.662;27.718;2024-01-11T00:28:24;5.95;;;3.70;;
59516;SDS011;45342;42.662;27.718;2024-01-11T00:30:50;5.30;;;3.28;;
59516;SDS011;45342;42.662;27.718;2024-01-11T00:33:16;5.82;;;3.53;;
59516;SDS011;45342;42.662;27.718;2024-01-11T00:35:41;6.10;;;3.30;;
59516;SDS011;45342;42.662;27.718;2024-01-11T00:38:07;6.15;;;3.50;;
59516;SDS011;45342;42.662;27.718;2024-01-11T00:40:33;6.05;;;3.63;;
59516;SDS011;45342;42.662;27.718;2024-01-11T00:42:58;5.47;;;3.50;;
59516;SDS011;45342;42.662;27.718;2024-01-11T00:45:24;5.90;;;3.35;;
59516;SDS011;45342;42.662;27.718;2024-01-11T00:47:50;6.07;;;3.80;;
59516;SDS011;45342;42.662;27.718;2024-01-11T00:50:16;4.80;;;3.25;;
59516;SDS011;45342;42.662;27.718;2024-01-11T00:52:41;6.45;;;3.60;;
59516;SDS011;45342;42.662;27.718;2024-01-11T00:55:07;4.75;;;3.17;;
59516;SDS011;45342;42.662;27.718;2024-01-11T00:57:33;5.30;;;3.47;;
59516;SDS011;45342;42.662;27.718;2024-01-11T00:59:59;5.40;;;3.38;;
59516;SDS011;45342;42.662;27.718;2024-01-11T01:02:26;5.82;;;3.33;;
59516;SDS011;45342;42.662;27.718;2024-01-11T01:04:51;6.05;;;3.35;;
59516;SDS011;45342;42.662;27.718;2024-01-11T01:07:17;4.95;;;3.15;;
59516;SDS011;45342;42.662;27.718;2024-01-11T01:09:43;5.70;;;3.38;;
59516;SDS011;45342;42.662;27.718;2024-01-11T01:12:09;4.85;;;3.22;;
59516;SDS011;45342;42.662;27.718;2024-01-11T01:14:34;5.95;;;3.65;;
59516;SDS011;45342;42.662;27.718;2024-01-11T01:17:00;4.45;;;3.13;;
59516;SDS011;45342;42.662;27.718;2024-01-11T01:19:26;4.57;;;3.08;;
59516;SDS011;45342;42.662;27.718;2024-01-11T01:21:51;5.65;;;3.35;;
59516;SDS011;45342;42.662;27.718;2024-01-11T01:24:18;5.10;;;3.30;;
59516;SDS011;45342;42.662;27.718;2024-01-11T01:26:44;5.20;;;3.00;;
59516;SDS011;45342;42.662;27.718;2024-01-11T01:29:10;6.45;;;3.30;;
59516;SDS011;45342;42.662;27.718;2024-01-11T01:31:36;5.47;;;3.33;;
59516;SDS011;45342;42.662;27.718;2024-01-11T01:34:03;4.25;;;3.05;;
59516;SDS011;45342;42.662;27.718;2024-01-11T01:36:29;5.32;;;3.30;;
59516;SDS011;45342;42.662;27.718;2024-01-11T01:38:55;3.72;;;2.60;;
59516;SDS011;45342;42.662;27.718;2024-01-11T01:41:21;5.13;;;2.95;;
59516;SDS011;45342;42.662;27.718;2024-01-11T01:43:47;4.63;;;3.15;;
59516;SDS011;45342;42.662;27.718;2024-01-11T01:46:12;4.15;;;2.90;;
59516;SDS011;45342;42.662;27.718;2024-01-11T01:48:46;5.43;;;3.08;;
59516;SDS011;45342;42.662;27.718;2024-01-11T01:51:12;4.28;;;3.00;;
59516;SDS011;45342;42.662;27.718;2024-01-11T01:53:37;4.75;;;2.92;;
59516;SDS011;45342;42.662;27.718;2024-01-11T01:56:05;5.35;;;3.00;;
59516;SDS011;45342;42.662;27.718;2024-01-11T01:58:31;5.32;;;3.47;;
59516;SDS011;45342;42.662;27.718;2024-01-11T02:00:59;5.43;;;3.45;;
59516;SDS011;45342;42.662;27.718;2024-01-11T02:03:25;3.92;;;2.85;;
59516;SDS011;45342;42.662;27.718;2024-01-11T02:05:53;5.45;;;3.00;;
59516;SDS011;45342;42.662;27.718;2024-01-11T02:08:21;5.28;;;2.92;;
59516;SDS011;45342;42.662;27.718;2024-01-11T02:10:47;4.78;;;2.60;;
59516;SDS011;45342;42.662;27.718;2024-01-11T02:13:13;3.33;;;2.60;;
59516;SDS011;45342;42.662;27.718;2024-01-11T02:15:49;3.58;;;2.63;;
59516;SDS011;45342;42.662;27.718;2024-01-11T02:18:15;4.05;;;2.78;;
59516;SDS011;45342;42.662;27.718;2024-01-11T02:20:41;5.45;;;3.13;;
59516;SDS011;45342;42.662;27.718;2024-01-11T02:23:08;4.45;;;2.88;;
59516;SDS011;45342;42.662;27.718;2024-01-11T02:25:45;4.70;;;3.10;;
59516;SDS011;45342;42.662;27.718;2024-01-11T02:28:12;4.20;;;2.70;;
59516;SDS011;45342;42.662;27.718;2024-01-11T02:30:39;3.60;;;2.80;;
59516;SDS011;45342;42.662;27.718;2024-01-11T02:33:07;4.63;;;2.72;;
59516;SDS011;45342;42.662;27.718;2024-01-11T02:35:33;4.50;;;2.97;;
59516;SDS011;45342;42.662;27.718;2024-01-11T02:42:52;4.70;;;2.90;;
59516;SDS011;45342;42.662;27.718;2024-01-11T02:45:20;4.03;;;2.72;;
59516;SDS011;45342;42.662;27.718;2024-01-11T02:47:47;3.72;;;2.40;;
59516;SDS011;45342;42.662;27.718;2024-01-11T02:50:14;4.10;;;2.83;;
59516;SDS011;45342;42.662;27.718;2024-01-11T02:52:41;4.60;;;2.75;;
59516;SDS011;45342;42.662;27.718;2024-01-11T02:55:07;3.90;;;2.80;;
59516;SDS011;45342;42.662;27.718;2024-01-11T02:57:33;5.20;;;3.00;;
59516;SDS011;45342;42.662;27.718;2024-01-11T02:59:58;4.18;;;2.70;;
59516;SDS011;45342;42.662;27.718;2024-01-11T03:02:34;4.82;;;3.00;;
59516;SDS011;45342;42.662;27.718;2024-01-11T03:05:04;4.30;;;3.10;;
59516;SDS011;45342;42.662;27.718;2024-01-11T03:07:30;3.50;;;2.35;;
59516;SDS011;45342;42.662;27.718;2024-01-11T03:09:56;5.03;;;2.67;;
59516;SDS011;45342;42.662;27.718;2024-01-11T03:12:25;3.53;;;2.50;;
59516;SDS011;45342;42.662;27.718;2024-01-11T03:14:52;4.70;;;3.00;;
59516;SDS011;45342;42.662;27.718;2024-01-11T03:17:21;5.70;;;3.00;;
59516;SDS011;45342;42.662;27.718;2024-01-11T03:19:47;4.03;;;2.78;;
59516;SDS011;45342;42.662;27.718;2024-01-11T03:22:13;4.55;;;2.80;;
59516;SDS011;45342;42.662;27.718;2024-01-11T03:27:17;4.28;;;2.58;;
59516;SDS011;45342;42.662;27.718;2024-01-11T03:29:43;3.70;;;2.65;;
59516;SDS011;45342;42.662;27.718;2024-01-11T03:32:27;4.47;;;2.70;;
59516;SDS011;45342;42.662;27.718;2024-01-11T03:34:53;6.40;;;3.15;;
59516;SDS011;45342;42.662;27.718;2024-01-11T03:37:22;3.97;;;2.53;;
59516;SDS011;45342;42.662;27.718;2024-01-11T03:39:47;4.43;;;2.88;;
59516;SDS011;45342;42.662;27.718;2024-01-11T03:42:13;4.10;;;2.67;;
59516;SDS011;45342;42.662;27.718;2024-01-11T03:44:39;3.90;;;2.38;;
59516;SDS011;45342;42.662;27.718;2024-01-11T03:47:05;3.85;;;2.53;;
59516;SDS011;45342;42.662;27.718;2024-01-11T03:49:32;4.10;;;2.55;;
59516;SDS011;45342;42.662;27.718;2024-01-11T03:51:58;3.65;;;2.67;;
59516;SDS011;45342;42.662;27.718;2024-01-11T03:54:25;3.78;;;2.50;;
59516;SDS011;45342;42.662;27.718;2024-01-11T03:56:53;3.30;;;2.60;;
59516;SDS011;45342;42.662;27.718;2024-01-11T03:59:19;3.33;;;2.28;;
59516;SDS011;45342;42.662;27.718;2024-01-11T04:01:45;4.43;;;2.80;;
59516;SDS011;45342;42.662;27.718;2024-01-11T04:06:43;3.85;;;2.60;;
59516;SDS011;45342;42.662;27.718;2024-01-11T04:14:12;4.50;;;2.75;;
59516;SDS011;45342;42.662;27.718;2024-01-11T04:16:48;4.72;;;2.78;;
59516;SDS011;45342;42.662;27.718;2024-01-11T04:19:29;2.85;;;2.15;;
59516;SDS011;45342;42.662;27.718;2024-01-11T04:21:57;4.78;;;2.70;;
59516;SDS011;45342;42.662;27.718;2024-01-11T04:24:22;4.18;;;2.60;;
59516;SDS011;45342;42.662;27.718;2024-01-11T04:27:02;3.72;;;2.28;;
59516;SDS011;45342;42.662;27.718;2024-01-11T04:31:59;3.35;;;2.20;;
59516;SDS011;45342;42.662;27.718;2024-01-11T04:34:27;3.80;;;2.22;;
59516;SDS011;45342;42.662;27.718;2024-01-11T04:39:27;4.78;;;2.95;;
59516;SDS011;45342;42.662;27.718;2024-01-11T04:41:54;3.08;;;2.25;;
59516;SDS011;45342;42.662;27.718;2024-01-11T04:44:22;3.28;;;2.35;;
59516;SDS011;45342;42.662;27.718;2024-01-11T04:46:47;3.97;;;2.42;;
59516;SDS011;45342;42.662;27.718;2024-01-11T04:49:13;3.90;;;2.15;;
59516;SDS011;45342;42.662;27.718;2024-01-11T04:51:39;3.72;;;2.45;;
59516;SDS011;45342;42.662;27.718;2024-01-11T04:54:05;4.15;;;2.35;;
59516;SDS011;45342;42.662;27.718;2024-01-11T04:56:31;3.08;;;2.30;;
59516;SDS011;45342;42.662;27.718;2024-01-11T05:01:37;3.55;;;2.30;;
59516;SDS011;45342;42.662;27.718;2024-01-11T05:04:04;4.65;;;2.42;;
59516;SDS011;45342;42.662;27.718;2024-01-11T05:09:03;3.63;;;2.33;;
59516;SDS011;45342;42.662;27.718;2024-01-11T05:11:29;3.30;;;2.10;;
59516;SDS011;45342;42.662;27.718;2024-01-11T05:14:02;3.63;;;2.60;;
59516;SDS011;45342;42.662;27.718;2024-01-11T05:16:28;3.30;;;2.40;;
59516;SDS011;45342;42.662;27.718;2024-01-11T05:18:56;3.38;;;2.40;;
59516;SDS011;45342;42.662;27.718;2024-01-11T05:21:23;3.72;;;2.30;;
59516;SDS011;45342;42.662;27.718;2024-01-11T05:23:49;3.88;;;2.38;;
59516;SDS011;45342;42.662;27.718;2024-01-11T05:26:16;3.70;;;2.58;;
59516;SDS011;45342;42.662;27.718;2024-01-11T05:28:44;3.72;;;2.42;;
59516;SDS011;45342;42.662;27.718;2024-01-11T05:31:10;4.20;;;2.25;;
59516;SDS011;45342;42.662;27.718;2024-01-11T05:33:44;4.15;;;2.50;;
59516;SDS011;45342;42.662;27.718;2024-01-11T05:36:11;3.20;;;2.28;;
59516;SDS011;45342;42.662;27.718;2024-01-11T05:38:38;3.65;;;2.40;;
59516;SDS011;45342;42.662;27.718;2024-01-11T05:43:34;3.95;;;2.63;;
59516;SDS011;45342;42.662;27.718;2024-01-11T05:46:00;3.05;;;2.38;;
59516;SDS011;45342;42.662;27.718;2024-01-11T05:48:27;4.28;;;2.55;;
59516;SDS011;45342;42.662;27.718;2024-01-11T05:50:53;4.30;;;2.55;;
59516;SDS011;45342;42.662;27.718;2024-01-11T05:56:09;4.25;;;2.70;;
59516;SDS011;45342;42.662;27.718;2024-01-11T05:58:35;5.25;;;3.05;;
59516;SDS011;45342;42.662;27.718;2024-01-11T06:01:04;3.28;;;2.30;;
59516;SDS011;45342;42.662;27.718;2024-01-11T06:03:31;3.40;;;2.35;;
59516;SDS011;45342;42.662;27.718;2024-01-11T06:08:29;4.03;;;2.33;;
59516;SDS011;45342;42.662;27.718;2024-01-11T06:13:24;4.15;;;2.50;;
59516;SDS011;45342;42.662;27.718;2024-01-11T06:15:50;3.47;;;2.40;;
59516;SDS011;45342;42.662;27.718;2024-01-11T06:18:19;3.88;;;2.55;;
59516;SDS011;45342;42.662;27.718;2024-01-11T06:20:44;4.20;;;2.63;;
59516;SDS011;45342;42.662;27.718;2024-01-11T06:23:11;4.38;;;2.67;;
59516;SDS011;45342;42.662;27.718;2024-01-11T06:25:37;4.03;;;2.55;;
59516;SDS011;45342;42.662;27.718;2024-01-11T06:28:03;4.97;;;2.70;;
59516;SDS011;45342;42.662;27.718;2024-01-11T06:30:31;3.97;;;2.50;;
59516;SDS011;45342;42.662;27.718;2024-01-11T06:32:57;3.47;;;2.15;;
59516;SDS011;45342;42.662;27.718;2024-01-11T06:35:23;3.53;;;2.63;;
59516;SDS011;45342;42.662;27.718;2024-01-11T06:37:50;4.70;;;2.63;;
59516;SDS011;45342;42.662;27.718;2024-01-11T06:40:17;2.97;;;2.33;;
59516;SDS011;45342;42.662;27.718;2024-01-11T06:42:44;2.83;;;2.30;;
59516;SDS011;45342;42.662;27.718;2024-01-11T06:45:10;4.47;;;2.60;;
59516;SDS011;45342;42.662;27.718;2024-01-11T06:50:08;5.03;;;2.58;;
59516;SDS011;45342;42.662;27.718;2024-01-11T06:52:35;3.97;;;2.60;;
59516;SDS011;45342;42.662;27.718;2024-01-11T06:57:37;4.10;;;2.60;;
59516;SDS011;45342;42.662;27.718;2024-01-11T07:05:32;4.57;;;2.70;;
59516;SDS011;45342;42.662;27.718;2024-01-11T07:07:58;4.47;;;2.92;;
59516;SDS011;45342;42.662;27.718;2024-01-11T07:10:28;4.63;;;2.75;;
59516;SDS011;45342;42.662;27.718;2024-01-11T07:13:00;4.00;;;2.75;;
59516;SDS011;45342;42.662;27.718;2024-01-11T07:15:26;4.47;;;3.08;;
59516;SDS011;45342;42.662;27.718;2024-01-11T07:20:24;4.45;;;2.67;;
59516;SDS011;45342;42.662;27.718;2024-01-11T07:31:59;4.40;;;2.70;;
59516;SDS011;45342;42.662;27.718;2024-01-11T07:37:20;5.78;;;3.00;;
59516;SDS011;45342;42.662;27.718;2024-01-11T07:39:46;4.93;;;2.75;;
59516;SDS011;45342;42.662;27.718;2024-01-11T07:42:12;3.72;;;2.42;;
59516;SDS011;45342;42.662;27.718;2024-01-11T07:44:39;4.35;;;2.65;;
59516;SDS011;45342;42.662;27.718;2024-01-11T07:49:52;4.70;;;3.00;;
59516;SDS011;45342;42.662;27.718;2024-01-11T07:52:17;5.20;;;3.20;;
59516;SDS011;45342;42.662;27.718;2024-01-11T07:54:43;4.88;;;2.92;;
59516;SDS011;45342;42.662;27.718;2024-01-11T07:57:10;3.47;;;2.45;;
59516;SDS011;45342;42.662;27.718;2024-01-11T07:59:37;4.30;;;2.67;;
59516;SDS011;45342;42.662;27.718;2024-01-11T08:02:03;4.00;;;2.63;;
59516;SDS011;45342;42.662;27.718;2024-01-11T08:04:30;4.53;;;2.75;;
59516;SDS011;45342;42.662;27.718;2024-01-11T08:07:00;4.68;;;2.60;;
59516;SDS011;45342;42.662;27.718;2024-01-11T08:09:27;5.28;;;2.90;;
59516;SDS011;45342;42.662;27.718;2024-01-11T08:14:20;3.83;;;2.60;;
59516;SDS011;45342;42.662;27.718;2024-01-11T08:19:18;4.50;;;2.72;;
59516;SDS011;45342;42.662;27.718;2024-01-11T08:21:50;5.88;;;3.00;;
59516;SDS011;45342;42.662;27.718;2024-01-11T08:24:18;6.43;;;3.15;;
59516;SDS011;45342;42.662;27.718;2024-01-11T08:26:46;5.78;;;3.10;;
59516;SDS011;45342;42.662;27.718;2024-01-11T08:29:13;5.15;;;3.17;;
59516;SDS011;45342;42.662;27.718;2024-01-11T08:31:39;5.13;;;2.92;;
59516;SDS011;45342;42.662;27.718;2024-01-11T08:34:05;5.85;;;3.00;;
59516;SDS011;45342;42.662;27.718;2024-01-11T08:36:31;5.10;;;2.65;;
59516;SDS011;45342;42.662;27.718;2024-01-11T08:39:02;4.55;;;2.70;;
59516;SDS011;45342;42.662;27.718;2024-01-11T08:41:30;4.43;;;2.60;;
59516;SDS011;45342;42.662;27.718;2024-01-11T08:43:56;8.85;;;3.15;;
59516;SDS011;45342;42.662;27.718;2024-01-11T08:46:28;7.95;;;3.15;;
59516;SDS011;45342;42.662;27.718;2024-01-11T08:48:55;7.18;;;3.45;;
59516;SDS011;45342;42.662;27.718;2024-01-11T08:51:22;6.03;;;3.22;;
59516;SDS011;45342;42.662;27.718;2024-01-11T08:53:48;9.30;;;3.25;;
59516;SDS011;45342;42.662;27.718;2024-01-11T08:56:14;10.18;;;3.42;;
59516;SDS011;45342;42.662;27.718;2024-01-11T08:58:42;8.13;;;3.33;;
59516;SDS011;45342;42.662;27.718;2024-01-11T09:01:08;8.68;;;3.55;;
59516;SDS011;45342;42.662;27.718;2024-01-11T09:03:35;9.20;;;3.28;;
59516;SDS011;45342;42.662;27.718;2024-01-11T09:06:02;7.97;;;3.13;;
59516;SDS011;45342;42.662;27.718;2024-01-11T09:11:00;7.75;;;3.40;;
59516;SDS011;45342;42.662;27.718;2024-01-11T09:13:27;6.95;;;3.70;;
59516;SDS011;45342;42.662;27.718;2024-01-11T09:15:53;6.38;;;3.42;;
59516;SDS011;45342;42.662;27.718;2024-01-11T09:20:53;8.00;;;2.83;;
59516;SDS011;45342;42.662;27.718;2024-01-11T09:23:26;7.85;;;3.72;;
59516;SDS011;45342;42.662;27.718;2024-01-11T09:25:54;8.73;;;3.05;;
59516;SDS011;45342;42.662;27.718;2024-01-11T09:28:23;11.35;;;3.35;;
59516;SDS011;45342;42.662;27.718;2024-01-11T09:30:48;6.47;;;3.05;;
59516;SDS011;45342;42.662;27.718;2024-01-11T09:33:15;7.07;;;3.25;;
59516;SDS011;45342;42.662;27.718;2024-01-11T09:35:40;23.38;;;3.60;;
59516;SDS011;45342;42.662;27.718;2024-01-11T09:38:08;6.18;;;3.13;;
59516;SDS011;45342;42.662;27.718;2024-01-11T09:40:35;4.97;;;2.95;;
59516;SDS011;45342;42.662;27.718;2024-01-11T09:43:02;6.78;;;3.25;;
59516;SDS011;45342;42.662;27.718;2024-01-11T09:45:29;5.78;;;2.95;;
59516;SDS011;45342;42.662;27.718;2024-01-11T09:47:55;8.23;;;3.10;;
59516;SDS011;45342;42.662;27.718;2024-01-11T09:50:21;5.82;;;3.25;;
59516;SDS011;45342;42.662;27.718;2024-01-11T09:52:48;6.60;;;3.35;;
59516;SDS011;45342;42.662;27.718;2024-01-11T09:55:19;11.85;;;3.20;;
59516;SDS011;45342;42.662;27.718;2024-01-11T09:57:48;5.85;;;2.72;;
59516;SDS011;45342;42.662;27.718;2024-01-11T10:00:18;8.52;;;2.97;;
59516;SDS011;45342;42.662;27.718;2024-01-11T10:02:47;6.93;;;3.08;;
59516;SDS011;45342;42.662;27.718;2024-01-11T10:05:18;7.60;;;3.22;;
59516;SDS011;45342;42.662;27.718;2024-01-11T10:07:44;9.48;;;3.35;;
59516;SDS011;45342;42.662;27.718;2024-01-11T10:10:12;10.15;;;2.88;;
59516;SDS011;45342;42.662;27.718;2024-01-11T10:12:40;7.93;;;2.83;;
59516;SDS011;45342;42.662;27.718;2024-01-11T10:15:06;6.22;;;2.63;;
59516;SDS011;45342;42.662;27.718;2024-01-11T10:20:25;4.32;;;2.45;;
59516;SDS011;45342;42.662;27.718;2024-01-11T10:22:52;5.97;;;2.85;;
59516;SDS011;45342;42.662;27.718;2024-01-11T10:25:18;12.00;;;3.03;;
59516;SDS011;45342;42.662;27.718;2024-01-11T10:27:45;6.93;;;2.92;;
59516;SDS011;45342;42.662;27.718;2024-01-11T10:30:12;5.70;;;2.92;;
59516;SDS011;45342;42.662;27.718;2024-01-11T10:32:40;5.70;;;2.72;;
59516;SDS011;45342;42.662;27.718;2024-01-11T10:35:06;6.03;;;2.70;;
59516;SDS011;45342;42.662;27.718;2024-01-11T10:37:32;6.43;;;2.60;;
59516;SDS011;45342;42.662;27.718;2024-01-11T10:40:01;4.82;;;2.85;;
59516;SDS011;45342;42.662;27.718;2024-01-11T10:42:44;5.63;;;2.90;;
59516;SDS011;45342;42.662;27.718;2024-01-11T10:45:14;7.13;;;3.08;;
59516;SDS011;45342;42.662;27.718;2024-01-11T10:51:09;5.70;;;2.80;;
59516;SDS011;45342;42.662;27.718;2024-01-11T11:00:44;4.20;;;3.10;;
59516;SDS011;45342;42.662;27.718;2024-01-11T11:06:39;5.20;;;3.22;;
59516;SDS011;45342;42.662;27.718;2024-01-11T11:13:05;6.63;;;3.42;;
59516;SDS011;45342;42.662;27.718;2024-01-11T11:15:35;6.55;;;3.25;;
59516;SDS011;45342;42.662;27.718;2024-01-11T11:18:07;6.38;;;3.00;;
59516;SDS011;45342;42.662;27.718;2024-01-11T11:20:33;6.13;;;3.10;;
59516;SDS011;45342;42.662;27.718;2024-01-11T11:23:05;6.00;;;3.20;;
59516;SDS011;45342;42.662;27.718;2024-01-11T11:25:32;6.68;;;3.22;;
59516;SDS011;45342;42.662;27.718;2024-01-11T11:27:58;7.45;;;3.33;;
59516;SDS011;45342;42.662;27.718;2024-01-11T11:30:31;7.78;;;3.33;;
59516;SDS011;45342;42.662;27.718;2024-01-11T11:38:59;5.43;;;3.20;;
59516;SDS011;45342;42.662;27.718;2024-01-11T11:41:26;5.88;;;3.00;;
59516;SDS011;45342;42.662;27.718;2024-01-11T11:44:00;5.50;;;3.20;;
59516;SDS011;45342;42.662;27.718;2024-01-11T11:50:25;4.88;;;3.10;;
59516;SDS011;45342;42.662;27.718;2024-01-11T11:55:22;6.13;;;3.05;;
59516;SDS011;45342;42.662;27.718;2024-01-11T11:57:52;4.85;;;3.42;;
59516;SDS011;45342;42.662;27.718;2024-01-11T12:00:23;6.40;;;3.28;;
59516;SDS011;45342;42.662;27.718;2024-01-11T12:03:02;6.05;;;3.17;;
59516;SDS011;45342;42.662;27.718;2024-01-11T12:07:58;5.50;;;3.40;;
59516;SDS011;45342;42.662;27.718;2024-01-11T12:10:24;4.20;;;2.95;;
59516;SDS011;45342;42.662;27.718;2024-01-11T12:12:49;6.30;;;3.05;;
59516;SDS011;45342;42.662;27.718;2024-01-11T12:15:15;4.45;;;3.00;;
59516;SDS011;45342;42.662;27.718;2024-01-11T12:17:41;6.38;;;3.40;;
59516;SDS011;45342;42.662;27.718;2024-01-11T12:22:33;5.80;;;2.90;;
59516;SDS011;45342;42.662;27.718;2024-01-11T12:24:59;5.40;;;3.17;;
59516;SDS011;45342;42.662;27.718;2024-01-11T12:27:25;5.18;;;3.20;;
59516;SDS011;45342;42.662;27.718;2024-01-11T12:29:52;6.70;;;3.30;;
59516;SDS011;45342;42.662;27.718;2024-01-11T12:32:17;6.45;;;3.30;;
59516;SDS011;45342;42.662;27.718;2024-01-11T12:34:44;5.13;;;3.30;;
59516;SDS011;45342;42.662;27.718;2024-01-11T12:37:11;5.18;;;2.97;;
59516;SDS011;45342;42.662;27.718;2024-01-11T12:39:39;5.65;;;2.90;;
59516;SDS011;45342;42.662;27.718;2024-01-11T12:42:04;6.60;;;3.20;;
59516;SDS011;45342;42.662;27.718;2024-01-11T12:44:30;5.65;;;2.78;;
59516;SDS011;45342;42.662;27.718;2024-01-11T12:46:57;6.18;;;3.28;;
59516;SDS011;45342;42.662;27.718;2024-01-11T12:49:23;7.72;;;3.47;;
59516;SDS011;45342;42.662;27.718;2024-01-11T12:51:49;6.43;;;3.47;;
59516;SDS011;45342;42.662;27.718;2024-01-11T12:54:15;5.43;;;3.08;;
59516;SDS011;45342;42.662;27.718;2024-01-11T12:56:45;6.35;;;3.38;;
59516;SDS011;45342;42.662;27.718;2024-01-11T12:59:11;10.40;;;3.38;;
59516;SDS011;45342;42.662;27.718;2024-01-11T13:01:40;7.97;;;3.60;;
59516;SDS011;45342;42.662;27.718;2024-01-11T13:04:08;7.88;;;3.55;;
59516;SDS011;45342;42.662;27.718;2024-01-11T13:06:34;9.07;;;3.97;;
59516;SDS011;45342;42.662;27.718;2024-01-11T13:09:01;8.48;;;3.63;;
59516;SDS011;45342;42.662;27.718;2024-01-11T13:11:29;7.72;;;4.13;;
59516;SDS011;45342;42.662;27.718;2024-01-11T13:13:55;7.47;;;3.50;;
59516;SDS011;45342;42.662;27.718;2024-01-11T13:16:24;7.75;;;3.50;;
59516;SDS011;45342;42.662;27.718;2024-01-11T13:18:50;7.82;;;3.28;;
59516;SDS011;45342;42.662;27.718;2024-01-11T13:21:17;7.15;;;3.40;;
59516;SDS011;45342;42.662;27.718;2024-01-11T13:23:42;7.60;;;3.63;;
59516;SDS011;45342;42.662;27.718;2024-01-11T13:26:08;7.40;;;3.78;;
59516;SDS011;45342;42.662;27.718;2024-01-11T13:28:38;6.45;;;3.22;;
59516;SDS011;45342;42.662;27.718;2024-01-11T13:31:08;9.57;;;3.58;;
59516;SDS011;45342;42.662;27.718;2024-01-11T13:33:41;9.05;;;3.97;;
59516;SDS011;45342;42.662;27.718;2024-01-11T13:36:07;6.75;;;3.53;;
59516;SDS011;45342;42.662;27.718;2024-01-11T13:38:33;6.32;;;3.47;;
59516;SDS011;45342;42.662;27.718;2024-01-11T13:40:59;6.70;;;3.63;;
59516;SDS011;45342;42.662;27.718;2024-01-11T13:43:24;7.93;;;3.40;;
59516;SDS011;45342;42.662;27.718;2024-01-11T13:45:52;9.80;;;3.55;;
59516;SDS011;45342;42.662;27.718;2024-01-11T13:48:19;7.03;;;3.50;;
59516;SDS011;45342;42.662;27.718;2024-01-11T13:50:46;6.18;;;3.13;;
59516;SDS011;45342;42.662;27.718;2024-01-11T13:53:13;7.30;;;3.63;;
59516;SDS011;45342;42.662;27.718;2024-01-11T13:55:38;6.00;;;3.38;;
59516;SDS011;45342;42.662;27.718;2024-01-11T13:58:05;7.18;;;3.47;;
59516;SDS011;45342;42.662;27.718;2024-01-11T14:00:31;6.65;;;3.30;;
59516;SDS011;45342;42.662;27.718;2024-01-11T14:02:57;5.85;;;3.22;;
59516;SDS011;45342;42.662;27.718;2024-01-11T14:05:23;6.60;;;3.47;;
59516;SDS011;45342;42.662;27.718;2024-01-11T14:07:48;7.43;;;3.13;;
59516;SDS011;45342;42.662;27.718;2024-01-11T14:10:20;6.43;;;3.25;;
59516;SDS011;45342;42.662;27.718;2024-01-11T14:12:46;7.30;;;3.25;;
59516;SDS011;45342;42.662;27.718;2024-01-11T14:15:17;6.80;;;3.65;;
59516;SDS011;45342;42.662;27.718;2024-01-11T14:17:43;6.38;;;3.35;;
59516;SDS011;45342;42.662;27.718;2024-01-11T14:20:09;6.75;;;3.40;;
59516;SDS011;45342;42.662;27.718;2024-01-11T14:22:40;8.38;;;3.50;;
59516;SDS011;45342;42.662;27.718;2024-01-11T14:25:06;5.63;;;3.35;;
59516;SDS011;45342;42.662;27.718;2024-01-11T14:27:32;6.80;;;3.63;;
59516;SDS011;45342;42.662;27.718;2024-01-11T14:29:59;5.78;;;3.22;;
59516;SDS011;45342;42.662;27.718;2024-01-11T14:32:25;5.97;;;3.42;;
59516;SDS011;45342;42.662;27.718;2024-01-11T14:34:52;6.35;;;3.45;;
59516;SDS011;45342;42.662;27.718;2024-01-11T14:37:18;6.03;;;3.15;;
59516;SDS011;45342;42.662;27.718;2024-01-11T14:39:44;6.28;;;3.70;;
59516;SDS011;45342;42.662;27.718;2024-01-11T14:42:09;6.60;;;3.72;;
59516;SDS011;45342;42.662;27.718;2024-01-11T14:44:38;5.20;;;3.35;;
59516;SDS011;45342;42.662;27.718;2024-01-11T14:47:03;6.32;;;3.42;;
59516;SDS011;45342;42.662;27.718;2024-01-11T14:49:29;5.57;;;3.55;;
59516;SDS011;45342;42.662;27.718;2024-01-11T14:51:55;6.40;;;3.13;;
59516;SDS011;45342;42.662;27.718;2024-01-11T14:54:21;9.07;;;3.58;;
59516;SDS011;45342;42.662;27.718;2024-01-11T14:56:47;7.55;;;3.33;;
59516;SDS011;45342;42.662;27.718;2024-01-11T14:59:13;8.55;;;3.42;;
59516;SDS011;45342;42.662;27.718;2024-01-11T15:04:05;5.65;;;3.42;;
59516;SDS011;45342;42.662;27.718;2024-01-11T15:06:31;7.35;;;3.70;;
59516;SDS011;45342;42.662;27.718;2024-01-11T15:08:59;5.78;;;3.42;;
59516;SDS011;45342;42.662;27.718;2024-01-11T15:11:25;6.97;;;3.78;;
59516;SDS011;45342;42.662;27.718;2024-01-11T15:13:51;9.10;;;3.95;;
59516;SDS011;45342;42.662;27.718;2024-01-11T15:16:19;6.35;;;3.50;;
59516;SDS011;45342;42.662;27.718;2024-01-11T15:18:45;10.65;;;4.10;;
59516;SDS011;45342;42.662;27.718;2024-01-11T15:21:15;6.93;;;3.60;;
59516;SDS011;45342;42.662;27.718;2024-01-11T15:23:41;9.15;;;3.53;;
59516;SDS011;45342;42.662;27.718;2024-01-11T15:26:06;11.07;;;4.25;;
59516;SDS011;45342;42.662;27.718;2024-01-11T15:30:59;10.15;;;4.30;;
59516;SDS011;45342;42.662;27.718;2024-01-11T15:33:25;12.48;;;4.38;;
59516;SDS011;45342;42.662;27.718;2024-01-11T15:35:50;8.63;;;4.30;;
59516;SDS011;45342;42.662;27.718;2024-01-11T15:38:16;10.73;;;4.30;;
59516;SDS011;45342;42.662;27.718;2024-01-11T15:40:42;10.77;;;4.72;;
59516;SDS011;45342;42.662;27.718;2024-01-11T15:43:08;10.55;;;4.55;;
59516;SDS011;45342;42.662;27.718;2024-01-11T15:45:34;9.13;;;4.05;;
59516;SDS011;45342;42.662;27.718;2024-01-11T15:48:00;12.55;;;4.72;;
59516;SDS011;45342;42.662;27.718;2024-01-11T15:50:26;9.18;;;4.53;;
59516;SDS011;45342;42.662;27.718;2024-01-11T15:52:51;13.27;;;4.50;;
59516;SDS011;45342;42.662;27.718;2024-01-11T15:55:17;9.02;;;4.45;;
59516;SDS011;45342;42.662;27.718;2024-01-11T15:57:45;9.40;;;4.28;;
59516;SDS011;45342;42.662;27.718;2024-01-11T16:00:12;9.40;;;4.30;;
59516;SDS011;45342;42.662;27.718;2024-01-11T16:02:38;6.85;;;3.80;;
59516;SDS011;45342;42.662;27.718;2024-01-11T16:05:09;8.88;;;4.10;;
59516;SDS011;45342;42.662;27.718;2024-01-11T16:07:35;7.22;;;4.05;;
59516;SDS011;45342;42.662;27.718;2024-01-11T16:10:01;6.63;;;3.95;;
59516;SDS011;45342;42.662;27.718;2024-01-11T16:12:29;9.48;;;4.13;;
59516;SDS011;45342;42.662;27.718;2024-01-11T16:14:56;7.75;;;3.88;;
59516;SDS011;45342;42.662;27.718;2024-01-11T16:17:24;8.73;;;4.28;;
59516;SDS011;45342;42.662;27.718;2024-01-11T16:19:50;8.02;;;4.13;;
59516;SDS011;45342;42.662;27.718;2024-01-11T16:22:16;7.25;;;3.97;;
59516;SDS011;45342;42.662;27.718;2024-01-11T16:24:46;7.45;;;4.30;;
59516;SDS011;45342;42.662;27.718;2024-01-11T16:27:13;8.68;;;4.28;;
59516;SDS011;45342;42.662;27.718;2024-01-11T16:29:39;7.85;;;4.35;;